createdAt,value
2023-10-23T00:04:42.070Z,27.2
2023-10-23T00:09:44.103Z,27.2
2023-10-23T00:14:45.814Z,27.2
2023-10-23T00:19:47.550Z,27.2
2023-10-23T00:24:49.479Z,27.2
2023-10-23T00:29:51.376Z,27.2
2023-10-23T00:34:53.058Z,27.2
2023-10-23T00:39:54.980Z,27.2
2023-10-23T00:44:56.701Z,27.2
2023-10-23T00:49:58.562Z,27.2
2023-10-23T00:55:00.341Z,27.2
2023-10-23T01:00:02.092Z,27.2
2023-10-23T01:05:03.947Z,27.2
2023-10-23T01:10:05.722Z,27.2
2023-10-23T01:15:07.431Z,27.2
2023-10-23T01:20:09.158Z,27.2
2023-10-23T01:25:11.033Z,27.2
2023-10-23T01:30:12.746Z,27.2
2023-10-23T01:35:14.458Z,27.2
2023-10-23T01:40:16.213Z,27.2
2023-10-23T01:45:17.927Z,27.2
2023-10-23T01:50:19.616Z,27.2
2023-10-23T01:55:21.323Z,27.2
2023-10-23T02:00:23.098Z,27.2
2023-10-23T02:05:24.770Z,27.2
2023-10-23T02:10:26.506Z,27.2
2023-10-23T02:15:28.339Z,27.2
2023-10-23T02:20:30.217Z,27.2
2023-10-23T02:25:31.933Z,27.2
2023-10-23T02:30:33.642Z,27.2
2023-10-23T02:35:35.364Z,27.2
2023-10-23T02:40:37.108Z,27.2
2023-10-23T02:45:38.996Z,27.2
2023-10-23T02:50:40.700Z,27.2
2023-10-23T02:55:42.445Z,27.2
2023-10-23T03:00:44.212Z,27.2
2023-10-23T03:05:45.910Z,27.2
2023-10-23T03:10:47.618Z,27.2
2023-10-23T03:15:49.508Z,27.2
2023-10-23T03:20:51.248Z,27.2
2023-10-23T03:25:52.973Z,27.2
2023-10-23T03:30:54.709Z,27.3
2023-10-23T03:35:56.533Z,27.3
2023-10-23T03:40:58.271Z,27.3
2023-10-23T03:46:00.238Z,27.3
2023-10-23T03:51:02.108Z,27.3
2023-10-23T03:56:03.845Z,27.3
2023-10-23T04:01:05.703Z,27.3
2023-10-23T04:06:07.408Z,27.3
2023-10-23T04:11:09.145Z,27.2
2023-10-23T04:16:11.013Z,27.3
2023-10-23T04:21:12.748Z,27.3
2023-10-23T04:26:14.674Z,27.3
2023-10-23T04:31:16.481Z,27.3
2023-10-23T04:36:18.185Z,27.3
2023-10-23T04:41:20.095Z,27.2
2023-10-23T04:46:21.991Z,27.3
2023-10-23T04:51:23.933Z,27.3
2023-10-23T04:56:25.664Z,27.3
2023-10-23T05:01:27.371Z,27.3
2023-10-23T05:06:29.156Z,27.3
2023-10-23T05:11:31.040Z,27.2
2023-10-23T05:16:32.914Z,27.3
2023-10-23T05:21:34.633Z,27.3
2023-10-23T05:26:36.466Z,27.3
2023-10-23T05:31:38.153Z,27.3
2023-10-23T05:36:40.003Z,27.2
2023-10-23T05:41:41.854Z,27.3
2023-10-23T05:46:43.557Z,27.3
2023-10-23T05:51:45.313Z,27.3
2023-10-23T05:56:47.042Z,27.3
2023-10-23T06:01:48.716Z,27.3
2023-10-23T06:06:50.454Z,27.3
2023-10-23T06:11:52.250Z,27.3
2023-10-23T06:16:54.119Z,27.3
2023-10-23T06:21:55.830Z,27.3
2023-10-23T06:26:57.583Z,27.3
2023-10-23T06:32:00.721Z,27.2
2023-10-23T06:37:02.994Z,26.9
2023-10-23T06:42:04.841Z,26.6
2023-10-23T06:47:06.692Z,26.5
2023-10-23T06:52:08.560Z,26.5
2023-10-23T06:57:10.457Z,26.5
2023-10-23T07:02:12.248Z,26.5
2023-10-23T07:07:22.466Z,26.5
2023-10-23T07:12:27.898Z,26.5
2023-10-23T07:17:29.664Z,26.5
2023-10-23T07:22:31.348Z,26.5
2023-10-23T07:27:33.103Z,26.4
2023-10-23T07:32:34.924Z,26.5
2023-10-23T07:37:36.629Z,26.4
2023-10-23T07:42:38.394Z,26.4
2023-10-23T07:47:40.127Z,26.4
2023-10-23T07:52:41.830Z,26.4
2023-10-23T07:57:43.638Z,26.4
2023-10-23T08:02:45.538Z,26.5
2023-10-23T08:07:47.275Z,26.4
2023-10-23T08:12:49.058Z,26.4
2023-10-23T08:17:50.892Z,26.4
2023-10-23T08:22:52.651Z,26.4
2023-10-23T08:27:54.436Z,26.4
2023-10-23T08:32:56.305Z,26.4
2023-10-23T08:37:58.269Z,26.4
2023-10-23T08:43:00.226Z,26.4
2023-10-23T08:48:01.974Z,26.4
2023-10-23T08:53:03.710Z,26.4
2023-10-23T08:58:05.467Z,26.3
2023-10-23T09:03:07.435Z,26.3
2023-10-23T09:08:09.196Z,26.3
2023-10-23T09:13:11.145Z,26.3
2023-10-23T09:18:12.888Z,26.3
2023-10-23T09:23:14.580Z,26.3
2023-10-23T09:28:16.385Z,26.4
2023-10-23T09:33:18.134Z,26.3
2023-10-23T09:38:19.822Z,26.3
2023-10-23T09:43:21.578Z,26.3
2023-10-23T09:48:23.353Z,26.3
2023-10-23T09:53:25.242Z,26.3
2023-10-23T09:58:26.960Z,26.3
2023-10-23T10:03:28.793Z,26.3
2023-10-23T10:08:30.692Z,26.3
2023-10-23T10:13:32.410Z,26.3
2023-10-23T10:18:34.282Z,26.3
2023-10-23T10:23:35.964Z,26.3
2023-10-23T10:28:37.667Z,26.3
2023-10-23T10:34:21.093Z,26.3
2023-10-23T10:39:30.389Z,26.3
2023-10-23T10:44:32.117Z,26.3
2023-10-23T10:49:34.100Z,26.3
2023-10-23T10:54:35.975Z,26.3
2023-10-23T10:59:37.965Z,26.3
2023-10-23T11:04:39.799Z,26.3
2023-10-23T11:09:41.539Z,26.3
2023-10-23T11:14:43.274Z,26.3
2023-10-23T11:19:44.999Z,26.3
2023-10-23T11:24:46.761Z,26.3
2023-10-23T11:29:48.530Z,26.3
2023-10-23T11:34:50.248Z,26.3
2023-10-23T11:39:51.978Z,26.4
2023-10-23T11:44:54.133Z,26.3
2023-10-23T11:49:56.880Z,26.4
2023-10-23T11:54:58.629Z,26.3
2023-10-23T12:00:00.585Z,26.4
2023-10-23T12:05:02.371Z,26.3
2023-10-23T12:10:04.191Z,26.4
2023-10-23T12:15:05.990Z,26.4
2023-10-23T12:20:07.680Z,26.4
2023-10-23T12:25:09.423Z,26.4
2023-10-23T12:30:12.749Z,26.4
2023-10-23T12:35:18.445Z,26.4
2023-10-23T12:40:20.208Z,26.4
2023-10-23T12:45:21.989Z,26.4
2023-10-23T12:50:23.700Z,26.3
2023-10-23T12:55:25.443Z,26.4
2023-10-23T13:00:27.269Z,26.4
2023-10-23T13:05:28.956Z,26.4
2023-10-23T13:10:30.659Z,26.4
2023-10-23T13:15:32.515Z,26.4
2023-10-23T13:20:52.012Z,26.4
2023-10-23T13:26:33.557Z,26.4
2023-10-23T13:31:35.390Z,26.4
2023-10-23T13:36:37.169Z,26.4
2023-10-23T13:41:38.879Z,26.4
2023-10-23T13:46:40.767Z,26.4
2023-10-23T13:51:42.550Z,26.4
2023-10-23T13:56:44.242Z,26.4
2023-10-23T14:01:46.073Z,26.4
2023-10-23T14:06:47.883Z,26.4
2023-10-23T14:11:58.788Z,26.4
2023-10-23T14:17:02.674Z,26.4
2023-10-23T14:22:04.495Z,26.4
2023-10-23T14:27:06.215Z,26.4
2023-10-23T14:32:08.085Z,26.4
2023-10-23T14:37:09.824Z,26.4
2023-10-23T14:42:11.567Z,26.4
2023-10-23T14:47:13.379Z,26.4
2023-10-23T14:52:15.222Z,26.4
2023-10-23T14:57:16.948Z,26.4
2023-10-23T15:02:18.693Z,26.4
2023-10-23T15:07:20.432Z,26.4
2023-10-23T15:12:22.147Z,26.4
2023-10-23T15:17:23.942Z,26.4
2023-10-23T15:22:25.734Z,26.4
2023-10-23T15:27:27.494Z,26.4
2023-10-23T15:32:29.253Z,26.4
2023-10-23T15:37:30.999Z,26.4
2023-10-23T15:42:32.741Z,26.4
2023-10-23T15:47:34.649Z,26.4
2023-10-23T15:52:36.594Z,26.4
2023-10-23T15:57:38.332Z,26.4
2023-10-23T16:02:40.069Z,26.4
2023-10-23T16:07:41.813Z,26.4
2023-10-23T16:12:43.676Z,26.4
2023-10-23T16:17:45.598Z,26.4
2023-10-23T16:22:47.401Z,26.4
2023-10-23T16:27:49.153Z,26.4
2023-10-23T16:32:51.027Z,26.4
2023-10-23T16:37:52.723Z,26.4
2023-10-23T16:42:54.608Z,26.4
2023-10-23T16:47:56.555Z,26.4
2023-10-23T16:52:58.315Z,26.4
2023-10-23T16:58:00.033Z,26.4
2023-10-23T17:03:01.932Z,26.4
2023-10-23T17:08:03.675Z,26.4
2023-10-23T17:13:05.498Z,26.4
2023-10-23T17:18:07.463Z,26.4
2023-10-23T17:23:09.248Z,26.4
2023-10-23T17:28:10.970Z,26.4
2023-10-23T17:33:12.896Z,26.4
2023-10-23T17:38:14.748Z,26.4
2023-10-23T17:43:16.541Z,26.4
2023-10-23T17:48:18.361Z,26.4
2023-10-23T17:53:20.107Z,26.4
2023-10-23T17:58:21.871Z,26.4
2023-10-23T18:03:23.852Z,26.4
2023-10-23T18:08:25.753Z,26.3
2023-10-23T18:13:27.466Z,26.4
2023-10-23T18:18:29.393Z,29.4
2023-10-23T18:23:31.218Z,32.4
2023-10-23T18:28:31.454Z,35.2
2023-10-23T18:33:31.920Z,37.4
2023-10-23T18:38:32.493Z,39.7
2023-10-23T18:43:32.934Z,41.4
2023-10-23T18:48:33.440Z,41.7
2023-10-23T18:53:33.928Z,42.2
2023-10-23T18:58:34.596Z,42.3
2023-10-23T19:03:35.281Z,42.3
2023-10-23T19:08:35.809Z,42.9
2023-10-23T19:13:36.484Z,43.1
2023-10-23T19:18:37.328Z,43.1
2023-10-23T19:23:37.856Z,43.1
2023-10-23T19:28:38.539Z,43
2023-10-23T19:33:39.151Z,43
2023-10-23T19:38:39.692Z,42.9
2023-10-23T19:43:40.402Z,42.7
2023-10-23T19:48:40.943Z,42.1
2023-10-23T19:53:45.538Z,41.9
2023-10-23T19:58:53.713Z,41.9
2023-10-23T20:03:54.156Z,41.8
2023-10-23T20:08:54.784Z,41.7
2023-10-23T20:13:55.223Z,41.6
2023-10-23T20:18:55.672Z,41.6
2023-10-23T20:23:56.109Z,41.6
2023-10-23T20:28:56.556Z,41.5
2023-10-23T20:33:56.989Z,41.5
2023-10-23T20:38:57.423Z,41.4
2023-10-23T20:43:58.024Z,41.4
2023-10-23T20:48:58.447Z,41.4
2023-10-23T20:53:58.877Z,41.3
2023-10-23T20:58:59.421Z,41.2
2023-10-23T21:03:59.970Z,41.2
2023-10-23T21:09:00.541Z,41.2
2023-10-23T21:14:00.964Z,41.2
2023-10-23T21:19:01.720Z,41.1
2023-10-23T21:24:02.153Z,41.1
2023-10-23T21:29:02.563Z,41.1
2023-10-23T21:34:03.211Z,41
2023-10-23T21:39:03.702Z,41
2023-10-23T21:44:04.158Z,40.9
2023-10-23T21:49:04.641Z,40.9
2023-10-23T21:54:05.188Z,40.8
2023-10-23T21:59:09.274Z,40.8
2023-10-23T22:04:12.769Z,40.8
2023-10-23T22:09:13.225Z,40.7
2023-10-23T22:14:13.879Z,40.6
2023-10-23T22:19:14.520Z,40.6
2023-10-23T22:24:14.978Z,40.6
2023-10-23T22:29:15.609Z,40.5
2023-10-23T22:34:16.215Z,40.5
2023-10-23T22:39:16.746Z,40.4
2023-10-23T22:44:17.191Z,40.4
2023-10-23T22:49:17.728Z,40.4
2023-10-23T22:54:18.218Z,40.3
2023-10-23T22:59:18.640Z,40.2
2023-10-23T23:04:19.307Z,40.2
2023-10-23T23:09:19.944Z,40.2
2023-10-23T23:14:20.563Z,40.1
2023-10-23T23:19:21.132Z,40.1
2023-10-23T23:24:21.700Z,40.1
2023-10-23T23:29:22.308Z,40
2023-10-23T23:34:22.818Z,39.9
2023-10-23T23:39:23.244Z,39.9
2023-10-23T23:44:23.816Z,39.9
2023-10-23T23:49:24.434Z,39.8
2023-10-23T23:54:24.892Z,39.7
2023-10-23T23:59:25.496Z,39.7
